Home > Products > Valid Products > TAF

000
FTUS43 KTOP 311100
TAFTOP
TAF
KTOP 311122Z 3112/0112 36014G22KT P6SM BKN027
     FM311300 01014G23KT P6SM SKC
     FM312000 02010KT P6SM SKC
     FM010000 02002KT P6SM SKC=



000
FTUS43 KTOP 311100 AAA
TAFTOP
TAF AMD
KTOP 311108Z 3111/0106 34014G22KT P6SM BKN027
     FM311400 01014G26KT P6SM SKC
     FM312100 02010KT P6SM SKC=



000
FTUS43 KTOP 310500
TAFTOP
TAF
KTOP 310520Z 3106/0106 34014G22KT P6SM BKN022
     FM311000 35013KT P6SM SCT027
     FM311400 01014G26KT P6SM SKC
     FM312100 02010KT P6SM SKC=



000
FTUS43 KTOP 302300
TAFTOP
TAF
KTOP 302325Z 3100/3124 33011KT P6SM SKC
     FM310600 35013G22KT P6SM BKN025
     FM311400 01014G26KT P6SM SKC=



000
FTUS43 KTOP 301700
TAFTOP
TAF
KTOP 301731Z 3018/3118 33012G21KT P6SM SKC
     FM310600 35009KT P6SM SCT015
     FM311400 01010KT P6SM FEW030=



000
FTUS43 KTOP 301700
TAFTOP
TAF
KTOP 301731Z 3018/3118 33012G21KT P6SM SKC
     FM310600 35009KT P6SM SCT015
     FM311400 01010KT P6SM FEW030=



000
FTUS43 KTOP 301100
TAFTOP
TAF
KTOP 301128Z 3012/3112 25007KT P6SM SCT100
     FM301700 33013G21KT P6SM SKC
     FM302300 33009KT P6SM SKC
     FM310700 36013KT P6SM SCT015=



000
FTUS43 KTOP 300500
TAFTOP
TAF
KTOP 300520Z 3006/3106 16005KT P6SM BKN150 WS009/22040KT
     FM301200 24006KT P6SM SCT150
     FM301700 33012G21KT P6SM SKC
     FM302300 34009KT P6SM SKC=



000
FTUS43 KTOP 292300
TAFTOP
TAF
KTOP 292320Z 3000/3024 15004KT P6SM SKC
     FM300500 18005KT P6SM BKN150 WS009/22040KT
     FM301200 22005KT P6SM SCT150
     FM301600 32012G20KT P6SM SKC=



000
FTUS43 KTOP 291700
TAFTOP
TAF
KTOP 291736Z 2918/3018 14004KT P6SM SKC
     FM300600 18006KT P6SM FEW120 WS010/23040KT
     FM301200 26008KT P6SM SKC=



000
FTUS43 KTOP 291100
TAFTOP
TAF
KTOP 291135Z 2912/3012 34003KT P6SM SKC
     FM292100 16006KT P6SM SKC
     FM300800 18007KT P6SM FEW120 WS010/23040KT=



000
FTUS43 KTOP 290500
TAFTOP
TAF
KTOP 290520Z 2906/3006 00000KT P6SM SKC
     FM291800 15005KT P6SM SKC=



000
FTUS43 KTOP 282300
TAFTOP
TAF
KTOP 282320Z 2900/2924 30002KT P6SM SKC
     FM291800 15005KT P6SM SKC=



000
FTUS43 KTOP 281700
TAFTOP
TAF
KTOP 281720Z 2818/2918 31006KT P6SM SCT250
     FM291200 VRB02KT P6SM SKC=



    US Dept of Commerce
    National Oceanic and Atmospheric Administration
    National Weather Service
    1325 East West Highway
    Silver Spring, MD 20910
    Page Author: NWS Internet Services Team
Disclaimer
Information Quality
Credits
Glossary
Privacy Policy
Freedom of Information Act (FOIA)
About Us
Career Opportunities